地図

経路データ

SID SEASON NUMBER BASIN SUBBASIN NAME ISO_TIME NATURE LAT LON WMO_WIND WMO_PRES WMO_AGENCY TRACK_TYPE DIST2LAND LANDFALL IFLAG USA_AGENCY USA_ATCF_ID USA_LAT USA_LON USA_RECORD USA_STATUS USA_WIND USA_PRES USA_SSHS USA_R34_NE USA_R34_SE USA_R34_SW USA_R34_NW USA_R50_NE USA_R50_SE USA_R50_SW USA_R50_NW USA_R64_NE USA_R64_SE USA_R64_SW USA_R64_NW USA_POCI USA_ROCI USA_RMW USA_EYE TOKYO_LAT TOKYO_LON TOKYO_GRADE TOKYO_WIND TOKYO_PRES TOKYO_R50_DIR TOKYO_R50_LONG TOKYO_R50_SHORT TOKYO_R30_DIR TOKYO_R30_LONG TOKYO_R30_SHORT TOKYO_LAND CMA_LAT CMA_LON CMA_CAT CMA_WIND CMA_PRES HKO_LAT HKO_LON HKO_CAT HKO_WIND HKO_PRES NEWDELHI_LAT NEWDELHI_LON NEWDELHI_GRADE NEWDELHI_WIND NEWDELHI_PRES NEWDELHI_CI NEWDELHI_DP NEWDELHI_POCI REUNION_LAT REUNION_LON REUNION_TYPE REUNION_WIND REUNION_PRES REUNION_TNUM REUNION_CI REUNION_RMW REUNION_R34_NE REUNION_R34_SE REUNION_R34_SW REUNION_R34_NW REUNION_R50_NE REUNION_R50_SE REUNION_R50_SW REUNION_R50_NW REUNION_R64_NE REUNION_R64_SE REUNION_R64_SW REUNION_R64_NW BOM_LAT BOM_LON BOM_TYPE BOM_WIND BOM_PRES BOM_TNUM BOM_CI BOM_RMW BOM_R34_NE BOM_R34_SE BOM_R34_SW BOM_R34_NW BOM_R50_NE BOM_R50_SE BOM_R50_SW BOM_R50_NW BOM_R64_NE BOM_R64_SE BOM_R64_SW BOM_R64_NW BOM_ROCI BOM_POCI BOM_EYE BOM_POS_METHOD BOM_PRES_METHOD NADI_LAT NADI_LON NADI_CAT NADI_WIND NADI_PRES WELLINGTON_LAT WELLINGTON_LON WELLINGTON_WIND WELLINGTON_PRES DS824_LAT DS824_LON DS824_STAGE DS824_WIND DS824_PRES TD9636_LAT TD9636_LON TD9636_STAGE TD9636_WIND TD9636_PRES TD9635_LAT TD9635_LON TD9635_WIND TD9635_PRES TD9635_ROCI NEUMANN_LAT NEUMANN_LON NEUMANN_CLASS NEUMANN_WIND NEUMANN_PRES MLC_LAT MLC_LON MLC_CLASS MLC_WIND MLC_PRES USA_GUST BOM_GUST BOM_GUST_PER REUNION_GUST REUNION_GUST_PER USA_SEAHGT USA_SEARAD_NE USA_SEARAD_SE USA_SEARAD_SW USA_SEARAD_NW STORM_SPEED STORM_DIR
1890021S08089 1890 4 SI MM NOT_NAMED 1890-01-21 06:00:00 NR -7.50000 88.6000 main 1314 1314 __________O___ -1 -7.50000 88.6000 7 20 257
1890021S08089 1890 4 SI MM NOT_NAMED 1890-01-21 09:00:00 NR -7.71788 87.6421 main 1420 1420 __________P___ -1 -7.71788 87.6421 7 19 257
1890021S08089 1890 4 SI MM NOT_NAMED 1890-01-21 12:00:00 NR -7.92772 86.7066 main 1518 1518 __________P___ -1 -7.92772 86.7066 7 19 257
1890021S08089 1890 4 SI MM NOT_NAMED 1890-01-21 15:00:00 NR -8.12364 85.8179 main 1616 1616 __________P___ -1 -8.12364 85.8179 7 17 258
1890021S08089 1890 4 SI MM NOT_NAMED 1890-01-21 18:00:00 NR -8.30000 85.0000 main 1664 1654 __________O___ -1 -8.30000 85.0000 7 16 258
1890021S08089 1890 4 SI MM NOT_NAMED 1890-01-21 21:00:00 NR -8.45610 84.2625 main 1665 1652 __________P___ -1 -8.45610 84.2625 7 15 258
1890021S08089 1890 4 SI MM NOT_NAMED 1890-01-22 00:00:00 NR -8.60997 83.5581 main 1658 1654 __________P___ -1 -8.60997 83.5581 7 15 257
1890021S08089 1890 4 SI MM NOT_NAMED 1890-01-22 03:00:00 NR -8.78397 82.8247 main 1665 1662 __________P___ -1 -8.78397 82.8247 7 16 256
1890021S08089 1890 4 SI MM NOT_NAMED 1890-01-22 06:00:00 NR -9.00000 82.0000 main 1676 1674 __________O___ -1 -9.00000 82.0000 7 19 255
1890021S08089 1890 4 SI MM NOT_NAMED 1890-01-22 09:00:00 NR -9.27070 80.9683 main 1703 1703 __________P___ -1 -9.27070 80.9683 7 22 255
1890021S08089 1890 4 SI MM NOT_NAMED 1890-01-22 12:00:00 NR -9.58400 79.8450 main 1739 1739 __________P___ -1 -9.58400 79.8450 7 23 254
1890021S08089 1890 4 SI MM NOT_NAMED 1890-01-22 15:00:00 NR -9.93008 78.6991 main 1782 1782 __________P___ -1 -9.93008 78.6991 7 23 252
1890021S08089 1890 4 SI MM NOT_NAMED 1890-01-22 18:00:00 NR -10.3000 77.6000 main 1845 1845 __________O___ -1 -10.3000 77.6000 7 22 250
1890021S08089 1890 4 SI MM NOT_NAMED 1890-01-22 21:00:00 NR -10.6940 76.5864 main 1912 1912 __________P___ -1 -10.6940 76.5864 7 21 247
1890021S08089 1890 4 SI MM NOT_NAMED 1890-01-23 00:00:00 NR -11.1069 75.6361 main 1983 1983 __________P___ -1 -11.1069 75.6361 7 20 245
1890021S08089 1890 4 SI MM NOT_NAMED 1890-01-23 03:00:00 NR -11.5163 74.7676 main 2052 1967 __________P___ -1 -11.5163 74.7676 7 18 244
1890021S08089 1890 4 SI MM NOT_NAMED 1890-01-23 06:00:00 NR -11.9000 74.0000 main 1967 1894 __________O___ -1 -11.9000 74.0000 7 16 243
1890021S08089 1890 4 SI MM NOT_NAMED 1890-01-23 09:00:00 NR -12.2151 73.3361 main 1884 1821 __________P___ -1 -12.2151 73.3361 7 13 243
1890021S08089 1890 4 SI MM NOT_NAMED 1890-01-23 12:00:00 NR -12.5057 72.7710 main 1821 1757 __________P___ -1 -12.5057 72.7710 7 12 241
1890021S08089 1890 4 SI MM NOT_NAMED 1890-01-23 15:00:00 NR -12.7936 72.2706 main 1757 1693 __________P___ -1 -12.7936 72.2706 7 11 238
1890021S08089 1890 4 SI MM NOT_NAMED 1890-01-23 18:00:00 NR -13.1000 71.8000 main 1693 1639 __________O___ -1 -13.1000 71.8000 7 11 235
1890021S08089 1890 4 SI MM NOT_NAMED 1890-01-23 21:00:00 NR -13.4409 71.3305 main 1629 1570 __________P___ -1 -13.4409 71.3305 7 12 232
1890021S08089 1890 4 SI MM NOT_NAMED 1890-01-24 00:00:00 NR -13.8114 70.8568 main 1570 1501 __________P___ -1 -13.8114 70.8568 7 12 231
1890021S08089 1890 4 SI MM NOT_NAMED 1890-01-24 03:00:00 NR -14.2011 70.3797 main 1501 1432 __________P___ -1 -14.2011 70.3797 7 12 230
1890021S08089 1890 4 SI MM NOT_NAMED 1890-01-24 06:00:00 NR -14.6000 69.9000 main 1432 __________O___ -1 -14.6000 69.9000 7 12 229

IBTrACS Databaseについて

本データベースは、米国NOAAが公開する1842年以降の世界の熱帯低気圧のベストトラックデータアーカイブInternational Best Track Archive for Climate Stewardship (IBTrACS)を、ウェブで閲覧しやすい形式に変換したものです。

最終更新日:2021-12-03